Time;durP1;ratioP1;P1;durP2;ratioP2;P2;SDS_P1;SDS_P2;PMS_P1;PMS_P2;Temp;Humidity;BMP_temperature;BMP_pressure;BME280_temperature;BME280_humidity;BME280_pressure;Samples;Min_cycle;Max_cycle;Signal;HPM_P1;HPM_P2
2023/01/03 00:02:12;;;;;;;8.73;8.53;;;9.70;99.90;;;;;;5100453;28;20255;-89
2023/01/03 00:04:42;;;;;;;8.73;8.53;;;9.70;99.90;;;;;;5100493;28;20488;-89
2023/01/03 00:07:11;;;;;;;8.50;8.30;;;9.70;99.90;;;;;;5099554;28;20575;-89
2023/01/03 00:09:42;;;;;;;8.60;8.40;;;9.70;99.90;;;;;;5099828;28;20225;-89
2023/01/03 00:12:28;;;;;;;8.67;8.47;;;9.70;99.90;;;;;;5099690;28;20295;-89
2023/01/03 00:14:57;;;;;;;8.70;8.50;;;9.70;99.90;;;;;;5100028;28;20261;-88
2023/01/03 00:17:27;;;;;;;8.70;8.50;;;9.70;99.90;;;;;;5099775;28;20236;-88
2023/01/03 00:19:56;;;;;;;8.70;8.50;;;9.70;99.90;;;;;;5100243;28;20282;-89
2023/01/03 00:22:27;;;;;;;8.60;8.40;;;9.60;99.90;;;;;;5100232;28;20264;-89
2023/01/03 00:24:57;;;;;;;8.80;8.60;;;9.50;99.90;;;;;;5101336;28;20237;-89
2023/01/03 00:27:34;;;;;;;8.40;8.20;;;9.60;99.90;;;;;;5102776;28;20271;-89
2023/01/03 00:30:03;;;;;;;8.30;8.10;;;9.60;99.90;;;;;;5100782;28;20379;-89
2023/01/03 00:32:35;;;;;;;8.17;7.97;;;9.50;99.90;;;;;;5100928;28;20236;-88
2023/01/03 00:35:12;;;;;;;8.30;8.10;;;9.50;99.90;;;;;;5100473;28;20238;-88
2023/01/03 00:37:42;;;;;;;8.40;8.20;;;9.50;99.90;;;;;;5098635;28;20229;-87
2023/01/03 00:40:12;;;;;;;8.10;7.90;;;9.40;99.90;;;;;;5100049;28;20217;-88
2023/01/03 00:45:35;;;;;;;8.10;7.90;;;9.40;99.90;;;;;;5099724;28;20229;-88
2023/01/03 00:48:06;;;;;;;8.17;7.97;;;9.40;99.90;;;;;;5099246;28;20229;-88
2023/01/03 00:50:43;;;;;;;8.00;7.80;;;9.40;99.90;;;;;;5099102;28;20320;-89
2023/01/03 00:53:22;;;;;;;8.23;8.03;;;9.30;99.90;;;;;;5100834;28;20241;-88
2023/01/03 00:55:50;;;;;;;8.10;7.90;;;9.30;99.90;;;;;;5106158;28;20292;-88
2023/01/03 00:58:30;;;;;;;7.90;7.70;;;9.20;99.90;;;;;;5113996;27;20205;-88
2023/01/03 01:00:58;;;;;;;7.90;7.70;;;9.20;99.90;;;;;;5103375;28;20222;-88
2023/01/03 01:03:27;;;;;;;7.90;7.70;;;9.10;99.90;;;;;;5107607;28;20297;-88
2023/01/03 01:05:58;;;;;;;7.83;7.63;;;9.10;99.90;;;;;;5101858;28;20291;-89
2023/01/03 01:08:29;;;;;;;7.70;7.50;;;9.10;99.90;;;;;;5100234;28;20311;-88
2023/01/03 01:11:04;;;;;;;7.73;7.53;;;9.10;99.90;;;;;;5100404;28;20263;-88
2023/01/03 01:13:42;;;;;;;7.63;7.43;;;9.00;99.90;;;;;;5120711;27;20268;-87
2023/01/03 01:16:13;;;;;;;7.50;7.30;;;9.00;99.90;;;;;;5120953;27;20241;-87
2023/01/03 01:18:52;;;;;;;7.30;7.10;;;9.00;99.90;;;;;;5120328;27;20247;-88
2023/01/03 01:21:23;;;;;;;7.57;7.37;;;9.00;99.90;;;;;;5112596;27;20227;-88
2023/01/03 01:24:01;;;;;;;7.37;7.17;;;8.90;99.90;;;;;;5101225;28;20233;-89
2023/01/03 01:26:29;;;;;;;7.30;7.10;;;8.90;99.90;;;;;;5099362;28;20267;-89
2023/01/03 01:28:59;;;;;;;7.40;7.20;;;8.90;99.90;;;;;;5098675;28;20221;-89
2023/01/03 01:31:28;;;;;;;7.43;7.23;;;8.90;99.90;;;;;;5098414;28;20329;-89
2023/01/03 01:33:59;;;;;;;7.60;7.40;;;8.90;99.90;;;;;;5098305;28;20241;-89
2023/01/03 01:45:07;;;;;;;7.20;7.00;;;8.80;99.90;;;;;;5103503;28;20236;-88
2023/01/03 01:47:45;;;;;;;7.20;7.00;;;8.80;99.90;;;;;;5119951;27;20213;-88
2023/01/03 01:50:24;;;;;;;7.10;6.90;;;8.70;99.90;;;;;;5120454;27;20256;-87
2023/01/03 01:53:00;;;;;;;7.23;7.03;;;8.70;99.90;;;;;;5100877;28;20601;-88
2023/01/03 01:55:32;;;;;;;7.00;6.80;;;8.70;99.90;;;;;;5098566;28;20236;-89
2023/01/03 01:58:01;;;;;;;7.40;7.20;;;8.70;99.90;;;;;;5098253;28;20252;-88
2023/01/03 02:00:39;;;;;;;7.30;7.10;;;8.70;99.90;;;;;;5098428;28;20351;-89
2023/01/03 02:03:09;;;;;;;7.40;7.20;;;8.70;99.90;;;;;;5098419;28;20699;-88
2023/01/03 02:11:37;;;;;;;7.77;7.57;;;8.60;99.90;;;;;;5078594;28;20675;-89
2023/01/03 02:14:46;;;;;;;7.60;7.40;;;8.60;99.90;;;;;;5077475;28;20245;-89
2023/01/03 02:20:24;;;;;;;7.50;7.30;;;8.60;99.90;;;;;;5078851;28;20304;-89
2023/01/03 02:26:51;;;;;;;7.57;7.37;;;8.60;99.90;;;;;;5077538;28;20234;-88
2023/01/03 02:30:23;;;;;;;7.63;7.43;;;8.60;99.90;;;;;;5078210;28;20328;-89
2023/01/03 02:33:09;;;;;;;7.30;7.10;;;8.60;99.90;;;;;;5079582;28;20264;-89
2023/01/03 02:35:48;;;;;;;7.30;7.10;;;8.60;99.90;;;;;;5077413;28;20246;-88
2023/01/03 02:38:25;;;;;;;7.30;7.10;;;8.60;99.90;;;;;;5077893;28;20268;-89
2023/01/03 02:43:51;;;;;;;7.17;6.97;;;8.50;99.90;;;;;;5076974;28;20222;-88
2023/01/03 02:46:30;;;;;;;7.10;6.90;;;8.50;99.90;;;;;;5077171;28;20280;-87
2023/01/03 02:49:09;;;;;;;7.20;7.00;;;8.60;99.90;;;;;;5077110;28;20236;-88
2023/01/03 02:51:45;;;;;;;7.03;6.83;;;8.60;99.90;;;;;;5077671;28;20242;-88
2023/01/03 02:54:26;;;;;;;7.37;7.17;;;8.50;99.90;;;;;;5078353;28;20328;-88
2023/01/03 02:57:05;;;;;;;7.77;7.57;;;8.50;99.90;;;;;;5079304;28;20252;-88
2023/01/03 02:59:41;;;;;;;7.40;7.20;;;8.50;99.90;;;;;;5079008;28;20233;-88
2023/01/03 03:02:11;;;;;;;7.50;7.30;;;8.50;99.90;;;;;;5080820;28;20244;-89
2023/01/03 03:04:48;;;;;;;7.33;7.13;;;8.50;99.90;;;;;;5081092;28;20301;-88
2023/01/03 03:07:27;;;;;;;7.40;7.20;;;8.50;99.90;;;;;;5080906;28;20230;-88
2023/01/03 03:15:39;;;;;;;7.80;7.60;;;8.40;99.90;;;;;;5081130;28;20287;-89
2023/01/03 03:18:18;;;;;;;7.43;7.23;;;8.50;99.90;;;;;;5080854;28;20233;-89
2023/01/03 03:26:28;;;;;;;7.50;7.30;;;8.40;99.90;;;;;;5102811;28;20278;-87
2023/01/03 03:29:02;;;;;;;7.60;7.40;;;8.40;99.90;;;;;;5095055;28;20230;-88
2023/01/03 03:31:39;;;;;;;7.40;7.20;;;8.50;99.90;;;;;;5087080;28;20213;-89
2023/01/03 03:34:17;;;;;;;7.60;7.40;;;8.40;99.90;;;;;;5083174;28;20253;-89
2023/01/03 03:37:01;;;;;;;7.70;7.50;;;8.40;99.90;;;;;;5082010;28;20222;-89
2023/01/03 03:45:24;;;;;;;7.23;7.03;;;8.40;99.90;;;;;;5080112;28;20265;-89
2023/01/03 03:48:02;;;;;;;7.10;6.90;;;8.40;99.90;;;;;;5080263;28;20257;-89
2023/01/03 03:53:31;;;;;;;7.30;7.10;;;8.40;99.90;;;;;;5079686;28;20244;-89
2023/01/03 03:56:07;;;;;;;6.90;6.70;;;8.30;99.90;;;;;;5079954;28;20230;-89
2023/01/03 03:58:45;;;;;;;7.13;6.93;;;8.30;99.90;;;;;;5080319;28;20329;-89
2023/01/03 04:04:03;;;;;;;7.37;7.17;;;8.20;99.90;;;;;;5079631;28;20276;-89
2023/01/03 04:06:40;;;;;;;7.43;7.23;;;8.10;99.90;;;;;;5079945;28;20226;-89
2023/01/03 04:09:20;;;;;;;7.70;7.50;;;8.10;99.90;;;;;;5080231;28;20321;-89
2023/01/03 04:11:55;;;;;;;7.20;7.00;;;8.10;99.90;;;;;;5080488;28;20234;-88
2023/01/03 04:14:34;;;;;;;7.23;7.03;;;8.10;99.90;;;;;;5079989;28;20320;-88
2023/01/03 04:17:03;;;;;;;7.30;7.10;;;8.10;99.90;;;;;;5079777;28;20226;-89
2023/01/03 04:19:38;;;;;;;7.53;7.33;;;8.10;99.90;;;;;;5079692;28;20237;-89
2023/01/03 04:22:20;;;;;;;7.40;7.20;;;8.10;99.90;;;;;;5080078;28;20244;-90
2023/01/03 04:24:57;;;;;;;7.70;7.50;;;8.10;99.90;;;;;;5079638;28;20234;-89
2023/01/03 04:27:32;;;;;;;7.50;7.30;;;8.10;99.90;;;;;;5079886;28;20230;-88
2023/01/03 04:30:05;;;;;;;7.80;7.60;;;8.10;99.90;;;;;;5079977;28;20229;-89
2023/01/03 04:32:36;;;;;;;7.83;7.63;;;8.10;99.90;;;;;;5079118;28;20226;-89
2023/01/03 04:35:04;;;;;;;7.40;7.20;;;8.00;99.90;;;;;;5078877;28;20237;-89
2023/01/03 04:37:34;;;;;;;7.43;7.23;;;8.00;99.90;;;;;;5079483;28;20238;-89
2023/01/03 04:40:13;;;;;;;7.30;7.10;;;8.00;99.90;;;;;;5078949;28;20234;-90
2023/01/03 04:45:28;;;;;;;7.30;7.10;;;8.00;99.90;;;;;;5079608;28;20226;-89
2023/01/03 04:48:01;;;;;;;7.50;7.30;;;8.00;99.90;;;;;;5078917;28;20230;-88
2023/01/03 04:50:36;;;;;;;7.80;7.60;;;8.00;99.90;;;;;;5079587;28;20325;-89
2023/01/03 04:53:09;;;;;;;7.80;7.60;;;8.00;99.90;;;;;;5079203;28;20750;-90
2023/01/03 04:55:48;;;;;;;7.50;7.30;;;8.00;99.90;;;;;;5120661;22;20253;-85
2023/01/03 04:58:25;;;;;;;7.33;7.13;;;8.00;99.90;;;;;;5103981;28;20288;-85
2023/01/03 05:01:00;;;;;;;7.50;7.30;;;7.90;99.90;;;;;;5106796;28;20351;-85
2023/01/03 05:03:29;;;;;;;7.50;7.30;;;7.90;99.90;;;;;;5119163;28;20225;-84
2023/01/03 05:06:00;;;;;;;7.80;7.60;;;7.90;99.90;;;;;;5110234;28;20276;-85
2023/01/03 05:08:29;;;;;;;7.60;7.40;;;7.80;99.90;;;;;;5107478;28;20260;-84
2023/01/03 05:11:00;;;;;;;7.27;7.07;;;7.80;99.90;;;;;;5107206;28;20240;-85
2023/01/03 05:13:31;;;;;;;7.63;7.43;;;7.70;99.90;;;;;;5105461;28;20222;-85
2023/01/03 05:16:06;;;;;;;7.40;7.20;;;7.60;99.90;;;;;;5104621;28;20236;-84
2023/01/03 05:18:36;;;;;;;7.30;7.10;;;7.60;99.90;;;;;;5104127;28;20256;-85
2023/01/03 05:26:41;;;;;;;7.20;7.00;;;7.40;99.90;;;;;;5103900;28;20217;-84
2023/01/03 05:29:10;;;;;;;7.20;7.00;;;7.30;99.90;;;;;;5103325;28;20324;-84
2023/01/03 05:31:39;;;;;;;7.37;7.17;;;7.20;99.90;;;;;;5103773;28;20236;-85
2023/01/03 05:34:07;;;;;;;7.30;7.10;;;7.20;99.90;;;;;;5103786;28;20236;-85
2023/01/03 05:36:36;;;;;;;7.40;7.20;;;7.10;99.90;;;;;;5102988;28;20230;-84
2023/01/03 05:39:06;;;;;;;7.60;7.40;;;7.20;99.90;;;;;;5103598;28;20240;-84
2023/01/03 05:44:25;;;;;;;7.60;7.40;;;7.10;99.90;;;;;;5116345;28;20217;-84
2023/01/03 05:46:54;;;;;;;7.60;7.40;;;7.00;99.90;;;;;;5116522;28;20244;-85
2023/01/03 05:49:23;;;;;;;7.60;7.40;;;7.00;99.90;;;;;;5103802;28;20247;-84
2023/01/03 05:51:52;;;;;;;7.13;6.93;;;6.90;99.90;;;;;;5103506;28;20233;-85
2023/01/03 05:54:23;;;;;;;7.40;7.20;;;6.90;99.90;;;;;;5102746;28;20245;-85
2023/01/03 05:56:51;;;;;;;7.30;7.10;;;6.90;99.90;;;;;;5103026;28;20218;-84
2023/01/03 05:59:30;;;;;;;6.90;6.70;;;6.80;99.90;;;;;;5102152;28;20252;-85
2023/01/03 06:01:59;;;;;;;7.10;6.90;;;6.80;99.90;;;;;;5103230;28;20256;-85
2023/01/03 06:04:28;;;;;;;7.20;7.00;;;6.80;99.90;;;;;;5102657;28;20239;-84
2023/01/03 06:06:57;;;;;;;7.10;6.90;;;6.70;99.90;;;;;;5102252;28;20233;-84
2023/01/03 06:09:30;;;;;;;6.90;6.70;;;6.70;99.90;;;;;;5103053;28;20233;-85
2023/01/03 06:11:58;;;;;;;6.67;6.47;;;6.60;99.90;;;;;;5104042;28;20241;-85
2023/01/03 06:14:29;;;;;;;6.80;6.60;;;6.50;99.90;;;;;;5103138;28;20272;-84
2023/01/03 06:19:51;;;;;;;7.20;7.00;;;6.40;99.90;;;;;;5104235;28;20214;-84
2023/01/03 06:22:24;;;;;;;7.30;7.10;;;6.40;99.90;;;;;;5112816;28;20237;-85
2023/01/03 06:24:54;;;;;;;7.20;7.00;;;6.40;99.90;;;;;;5104230;28;20241;-84
2023/01/03 06:27:21;;;;;;;7.30;7.10;;;6.40;99.90;;;;;;5105797;28;20309;-84
2023/01/03 06:29:52;;;;;;;7.10;6.90;;;6.30;99.90;;;;;;5106180;28;20229;-84
2023/01/03 06:32:19;;;;;;;7.10;6.90;;;6.30;99.90;;;;;;5105262;28;20237;-84
2023/01/03 06:34:49;;;;;;;7.20;7.00;;;6.30;99.90;;;;;;5105831;28;20233;-84
2023/01/03 06:37:19;;;;;;;7.47;7.27;;;6.30;99.90;;;;;;5106166;28;20220;-85
2023/01/03 06:39:49;;;;;;;7.10;6.90;;;6.20;99.90;;;;;;5106407;28;20257;-84
2023/01/03 06:53:34;;;;;;;7.23;7.03;;;6.20;99.90;;;;;;5106037;28;20253;-85
2023/01/03 06:56:03;;;;;;;7.50;7.30;;;6.20;99.90;;;;;;5106693;28;20260;-84
2023/01/03 06:58:32;;;;;;;8.07;7.87;;;6.20;99.90;;;;;;5111922;28;20248;-84
2023/01/03 07:01:10;;;;;;;8.10;7.90;;;6.10;99.90;;;;;;5112264;28;20229;-85
2023/01/03 07:03:39;;;;;;;8.20;8.00;;;6.10;99.90;;;;;;5114294;28;20386;-84
2023/01/03 07:06:09;;;;;;;8.10;7.90;;;6.00;99.90;;;;;;5110445;28;20320;-85
2023/01/03 07:08:39;;;;;;;8.30;8.10;;;6.00;99.90;;;;;;5109556;28;20297;-84
2023/01/03 07:11:08;;;;;;;8.10;7.90;;;6.00;99.90;;;;;;5109206;28;20261;-84
2023/01/03 07:16:33;;;;;;;8.30;8.10;;;5.90;99.90;;;;;;5111452;28;20241;-84
2023/01/03 07:19:02;;;;;;;8.00;7.80;;;5.90;99.90;;;;;;5109252;28;20237;-84
2023/01/03 07:21:34;;;;;;;8.20;8.00;;;5.90;99.90;;;;;;5107702;28;20257;-84
2023/01/03 07:24:04;;;;;;;8.20;8.00;;;5.90;99.90;;;;;;5106911;28;20252;-84
2023/01/03 07:26:33;;;;;;;7.97;7.77;;;5.90;99.90;;;;;;5107045;28;20232;-85
2023/01/03 07:29:10;;;;;;;7.90;7.70;;;5.80;99.90;;;;;;5106270;28;20225;-84
2023/01/03 07:31:41;;;;;;;7.93;7.73;;;5.80;99.90;;;;;;5106648;28;20229;-84
2023/01/03 07:34:10;;;;;;;8.00;7.80;;;5.80;99.90;;;;;;5105652;28;20238;-84
2023/01/03 07:36:40;;;;;;;8.00;7.80;;;5.80;99.90;;;;;;5106621;28;20268;-84
2023/01/03 07:39:07;;;;;;;7.93;7.73;;;5.80;99.90;;;;;;5106798;28;20225;-84
2023/01/03 07:44:26;;;;;;;8.13;7.93;;;5.90;99.90;;;;;;5105934;28;20312;-84
2023/01/03 07:46:57;;;;;;;7.97;7.77;;;5.90;99.90;;;;;;5105543;28;20233;-84
2023/01/03 07:49:25;;;;;;;7.97;7.77;;;5.90;99.90;;;;;;5105913;28;20230;-85
2023/01/03 07:51:53;;;;;;;8.00;7.80;;;5.90;99.90;;;;;;5106376;28;20225;-84
2023/01/03 07:54:23;;;;;;;7.90;7.70;;;5.90;99.90;;;;;;5105635;28;20312;-84
2023/01/03 07:56:53;;;;;;;7.93;7.73;;;5.90;99.90;;;;;;5105394;28;20337;-84
2023/01/03 07:59:22;;;;;;;7.60;7.40;;;5.90;99.90;;;;;;5105050;28;20720;-84
2023/01/03 08:01:51;;;;;;;7.57;7.37;;;5.90;99.90;;;;;;5105433;28;20230;-84
2023/01/03 08:04:33;;;;;;;7.60;7.40;;;5.90;99.90;;;;;;5105819;28;20300;-84
2023/01/03 08:07:00;;;;;;;7.30;7.10;;;5.90;99.90;;;;;;5105234;28;20283;-85
2023/01/03 08:15:02;;;;;;;7.43;7.23;;;6.00;99.90;;;;;;5106172;28;20233;-85
2023/01/03 08:17:32;;;;;;;7.70;7.50;;;6.10;99.90;;;;;;5106283;28;20244;-85
2023/01/03 08:20:11;;;;;;;8.03;7.83;;;6.00;99.90;;;;;;5108578;28;20271;-84
2023/01/03 08:22:40;;;;;;;8.13;7.93;;;6.00;99.90;;;;;;5107803;28;20237;-85
2023/01/03 08:25:09;;;;;;;8.10;7.90;;;6.10;99.90;;;;;;5106784;28;20285;-85
2023/01/03 08:27:39;;;;;;;8.13;7.93;;;6.10;99.90;;;;;;5116491;28;20236;-84
2023/01/03 08:30:08;;;;;;;8.00;7.80;;;6.20;99.90;;;;;;5118417;28;20225;-84
2023/01/03 08:32:37;;;;;;;7.60;7.40;;;6.20;99.90;;;;;;5116442;28;20229;-84
2023/01/03 08:35:15;;;;;;;7.63;7.43;;;6.30;99.90;;;;;;5108916;28;20249;-84
2023/01/03 08:37:45;;;;;;;7.90;7.70;;;6.40;99.90;;;;;;5107452;28;20217;-85
2023/01/03 08:40:16;;;;;;;8.00;7.80;;;6.40;99.90;;;;;;5106144;28;20232;-85
2023/01/03 08:45:31;;;;;;;7.97;7.77;;;6.60;99.90;;;;;;5109303;28;20225;-84
2023/01/03 08:48:01;;;;;;;8.00;7.80;;;6.70;99.90;;;;;;5115530;28;20229;-85
2023/01/03 08:50:35;;;;;;;7.90;7.70;;;6.70;99.90;;;;;;5113630;28;20213;-85
2023/01/03 08:55:46;;;;;;;7.90;7.70;;;6.70;99.90;;;;;;5111361;28;20267;-85
2023/01/03 08:58:17;;;;;;;8.03;7.83;;;6.80;99.90;;;;;;5108122;28;20253;-84
2023/01/03 09:00:45;;;;;;;8.00;7.80;;;6.80;99.90;;;;;;5108507;28;20281;-85
2023/01/03 09:03:15;;;;;;;7.93;7.73;;;6.90;99.90;;;;;;5105564;28;20225;-85
2023/01/03 09:05:53;;;;;;;8.13;7.93;;;6.90;99.90;;;;;;5107510;28;20284;-85
2023/01/03 09:08:22;;;;;;;8.07;7.87;;;7.00;99.90;;;;;;5104230;28;20233;-85
2023/01/03 09:10:52;;;;;;;7.80;7.60;;;7.20;99.90;;;;;;5104163;28;20240;-86
2023/01/03 09:13:22;;;;;;;7.83;7.63;;;7.30;99.90;;;;;;5103911;28;20229;-85
2023/01/03 09:15:51;;;;;;;7.93;7.73;;;7.40;99.90;;;;;;5103288;28;20298;-85
2023/01/03 09:18:20;;;;;;;7.90;7.70;;;7.50;99.90;;;;;;5103876;28;20226;-85
2023/01/03 09:20:58;;;;;;;8.03;7.83;;;7.50;99.90;;;;;;5107454;28;20214;-86
2023/01/03 09:23:28;;;;;;;8.30;8.10;;;7.50;99.90;;;;;;5116402;28;20248;-85
2023/01/03 09:25:58;;;;;;;8.07;7.87;;;7.50;99.90;;;;;;5113367;28;20237;-85
2023/01/03 09:28:26;;;;;;;8.30;8.10;;;7.40;99.90;;;;;;5108206;28;20229;-85
2023/01/03 09:30:55;;;;;;;8.20;8.00;;;7.40;99.90;;;;;;5104888;28;20316;-85
2023/01/03 09:33:25;;;;;;;8.30;8.10;;;7.40;99.90;;;;;;5104942;28;20283;-85
2023/01/03 09:38:41;;;;;;;8.23;8.03;;;7.30;99.90;;;;;;5103583;28;20324;-85
2023/01/03 09:41:20;;;;;;;8.07;7.87;;;7.40;99.90;;;;;;5102562;28;20221;-85
2023/01/03 09:44:02;;;;;;;8.10;7.90;;;7.50;99.90;;;;;;5102335;28;20263;-86
2023/01/03 09:46:31;;;;;;;8.17;7.97;;;7.40;99.90;;;;;;5102705;28;20229;-85
2023/01/03 09:49:08;;;;;;;8.53;8.33;;;7.40;99.90;;;;;;5103377;28;20248;-86
2023/01/03 10:03:48;;;;;;;8.50;8.30;;;7.70;99.90;;;;;;5103163;28;20235;-86
2023/01/03 10:06:35;;;;;;;8.60;8.40;;;7.80;99.90;;;;;;5102743;28;20253;-85
2023/01/03 10:09:21;;;;;;;8.70;8.50;;;7.90;99.90;;;;;;5104015;28;20233;-86
2023/01/03 10:12:08;;;;;;;8.67;8.47;;;7.90;99.90;;;;;;5119141;28;20221;-85
2023/01/03 10:14:55;;;;;;;8.50;8.30;;;8.00;99.90;;;;;;5117598;28;20221;-86
2023/01/03 10:17:33;;;;;;;8.40;8.20;;;8.00;99.90;;;;;;5107854;28;20226;-84
2023/01/03 10:20:38;;;;;;;8.40;8.20;;;8.10;99.90;;;;;;5106013;28;20233;-86
2023/01/03 10:23:07;;;;;;;8.43;8.23;;;8.20;99.90;;;;;;5105079;28;20229;-85
2023/01/03 10:25:48;;;;;;;8.30;8.10;;;8.30;99.90;;;;;;5106293;28;20249;-84
2023/01/03 10:28:24;;;;;;;8.43;8.23;;;8.30;99.90;;;;;;5105280;28;20895;-84
2023/01/03 10:31:10;;;;;;;8.70;8.50;;;8.40;99.90;;;;;;5104497;28;20236;-85
2023/01/03 10:33:49;;;;;;;8.47;8.27;;;8.50;99.90;;;;;;5105576;28;20221;-84
2023/01/03 10:36:20;;;;;;;8.27;8.07;;;8.60;99.90;;;;;;5109468;28;20237;-85
2023/01/03 10:38:49;;;;;;;8.40;8.20;;;8.70;99.90;;;;;;5115228;28;20202;-84
2023/01/03 10:41:36;;;;;;;8.27;8.07;;;8.90;99.90;;;;;;5113896;28;20221;-85
2023/01/03 10:44:05;;;;;;;8.27;8.07;;;9.00;99.90;;;;;;5109061;28;20230;-85
2023/01/03 10:46:35;;;;;;;8.57;8.37;;;9.20;99.90;;;;;;5112059;28;20229;-85
2023/01/03 10:49:22;;;;;;;8.80;8.60;;;9.40;99.90;;;;;;5109722;28;20233;-85
2023/01/03 10:52:00;;;;;;;9.13;8.87;;;9.70;99.90;;;;;;5107259;28;20238;-85
2023/01/03 10:54:47;;;;;;;9.23;8.93;;;10.00;99.90;;;;;;5129856;22;20240;-85
2023/01/03 10:58:00;;;;;;;9.60;9.30;;;10.30;99.90;;;;;;5116466;28;20218;-88
2023/01/03 11:03:34;;;;;;;9.20;8.90;;;10.80;99.90;;;;;;5105073;28;20275;-87
2023/01/03 11:06:20;;;;;;;9.50;9.20;;;10.80;99.90;;;;;;5105863;28;20323;-88
2023/01/03 11:09:07;;;;;;;8.70;8.50;;;11.00;99.90;;;;;;5119378;28;20232;-87
2023/01/03 11:11:37;;;;;;;9.30;9.00;;;11.20;99.90;;;;;;5114640;28;20236;-88
2023/01/03 11:14:25;;;;;;;8.97;8.73;;;11.20;99.90;;;;;;5100397;28;20233;-88
2023/01/03 11:17:02;;;;;;;9.30;9.00;;;11.00;99.90;;;;;;5100332;28;20237;-88
2023/01/03 11:19:40;;;;;;;8.90;8.70;;;10.90;99.90;;;;;;5101348;28;20320;-88
2023/01/03 11:22:28;;;;;;;8.83;8.63;;;10.80;99.90;;;;;;5104932;28;20225;-88
2023/01/03 11:25:41;;;;;;;9.30;9.00;;;10.80;99.90;;;;;;5105095;28;20256;-88
2023/01/03 11:28:55;;;;;;;9.57;9.27;;;10.90;99.90;;;;;;5102921;28;20325;-88
2023/01/03 11:31:41;;;;;;;9.50;9.20;;;11.00;99.90;;;;;;5106662;28;20735;-88
2023/01/03 11:34:30;;;;;;;9.80;9.50;;;11.10;99.90;;;;;;5110821;28;20229;-88
2023/01/03 11:37:15;;;;;;;9.80;9.50;;;11.30;99.90;;;;;;5122712;28;20245;-88
2023/01/03 11:43:11;;;;;;;9.77;9.47;;;11.80;99.90;;;;;;5113217;28;20263;-88
2023/01/03 11:49:19;;;;;;;10.00;9.70;;;12.20;99.90;;;;;;5099748;28;20224;-89
2023/01/03 11:52:05;;;;;;;9.60;9.30;;;12.40;99.90;;;;;;5102610;28;20225;-87
2023/01/03 11:58:19;;;;;;;9.77;9.47;;;12.70;99.90;;;;;;5102117;28;20294;-88
2023/01/03 12:00:57;;;;;;;9.60;9.30;;;12.80;99.90;;;;;;5101598;28;20230;-87
2023/01/03 12:03:39;;;;;;;9.70;9.40;;;12.80;99.90;;;;;;5100740;28;20279;-87
2023/01/03 12:06:26;;;;;;;9.70;9.40;;;12.90;99.90;;;;;;5099963;28;20222;-88
2023/01/03 12:09:13;;;;;;;9.90;9.60;;;13.20;99.90;;;;;;5100757;28;20229;-87
2023/01/03 12:12:18;;;;;;;9.60;9.30;;;13.20;99.90;;;;;;5099993;28;20244;-88
2023/01/03 12:14:57;;;;;;;10.00;9.70;;;13.00;99.90;;;;;;5068536;28;20244;-88
2023/01/03 12:17:34;;;;;;;9.63;9.33;;;12.90;99.90;;;;;;5100673;28;20213;-88
2023/01/03 12:20:14;;;;;;;9.80;9.50;;;12.70;99.90;;;;;;5100106;28;20255;-88
2023/01/03 12:22:51;;;;;;;9.90;9.60;;;12.60;99.90;;;;;;5102174;28;20225;-88
2023/01/03 12:25:30;;;;;;;9.73;9.43;;;12.60;99.90;;;;;;5100280;28;20233;-88
2023/01/03 12:28:08;;;;;;;9.50;9.20;;;12.60;99.90;;;;;;5100575;28;20233;-89
2023/01/03 12:30:46;;;;;;;9.77;9.47;;;12.70;99.90;;;;;;5100968;28;20237;-88
2023/01/03 12:33:29;;;;;;;9.50;9.20;;;12.80;99.90;;;;;;5110086;28;20217;-88
2023/01/03 12:36:12;;;;;;;9.60;9.30;;;12.90;99.90;;;;;;5119394;28;20229;-88
2023/01/03 12:39:17;;;;;;;9.70;9.40;;;12.90;99.90;;;;;;5110926;28;20218;-88
2023/01/03 12:44:42;;;;;;;10.00;9.70;;;13.40;99.90;;;;;;5115442;28;20232;-88
2023/01/03 12:47:22;;;;;;;9.83;9.53;;;13.40;99.90;;;;;;5102464;28;20307;-88
2023/01/03 12:49:58;;;;;;;9.70;9.40;;;13.10;99.90;;;;;;5101535;28;20233;-88
2023/01/03 12:52:27;;;;;;;9.80;9.50;;;13.00;99.90;;;;;;5100335;28;20233;-88
2023/01/03 12:55:22;;;;;;;9.70;9.40;;;12.90;99.90;;;;;;5099574;28;20951;-89
2023/01/03 12:58:27;;;;;;;9.57;9.27;;;12.70;99.90;;;;;;5099922;28;20264;-89
2023/01/03 13:01:07;;;;;;;9.60;9.30;;;12.50;99.90;;;;;;5102524;28;20279;-88
2023/01/03 13:03:44;;;;;;;10.00;9.70;;;12.60;99.90;;;;;;5099654;28;20236;-88
2023/01/03 13:06:21;;;;;;;9.90;9.60;;;12.70;99.90;;;;;;5099565;28;20236;-88
2023/01/03 13:08:56;;;;;;;9.77;9.47;;;12.80;99.90;;;;;;5099377;28;20368;-88
2023/01/03 13:11:31;;;;;;;9.30;9.00;;;12.70;99.90;;;;;;5108229;28;20299;-88
2023/01/03 13:14:08;;;;;;;9.40;9.10;;;12.50;99.90;;;;;;5106548;28;20304;-88
2023/01/03 13:16:45;;;;;;;9.20;8.90;;;12.20;99.90;;;;;;5104328;28;20300;-88
2023/01/03 13:19:52;;;;;;;8.90;8.70;;;12.10;99.90;;;;;;5102576;28;20233;-88
2023/01/03 13:22:57;;;;;;;9.20;8.90;;;12.10;99.90;;;;;;5099596;28;20230;-89
2023/01/03 13:25:43;;;;;;;8.80;8.60;;;12.00;99.90;;;;;;5099138;28;20237;-88
2023/01/03 13:28:40;;;;;;;8.90;8.70;;;12.20;99.90;;;;;;5101255;28;20229;-88
2023/01/03 13:32:09;;;;;;;8.77;8.57;;;12.30;99.90;;;;;;5094543;28;20229;-89
2023/01/03 13:34:39;;;;;;;9.50;9.20;;;12.60;99.90;;;;;;5094816;28;20236;-88
2023/01/03 13:37:19;;;;;;;9.50;9.20;;;12.90;99.90;;;;;;5103347;28;20259;-87
2023/01/03 13:40:22;;;;;;;9.53;9.23;;;13.00;99.90;;;;;;5121012;28;20228;-88
2023/01/03 13:43:02;;;;;;;9.53;9.23;;;13.10;99.90;;;;;;5120087;28;20216;-87
2023/01/03 13:46:05;;;;;;;9.70;9.40;;;13.30;99.90;;;;;;5117340;28;20225;-89
2023/01/03 13:48:44;;;;;;;9.50;9.20;;;13.70;99.90;;;;;;5100216;28;20229;-89
2023/01/03 13:51:48;;;;;;;9.40;9.10;;;14.10;99.90;;;;;;5099023;28;20279;-88
2023/01/03 13:55:10;;;;;;;9.50;9.20;;;14.10;99.90;;;;;;5097994;28;20294;-89
2023/01/03 13:57:58;;;;;;;8.90;8.70;;;13.60;99.90;;;;;;5098560;28;20237;-88
2023/01/03 14:00:27;;;;;;;8.90;8.70;;;13.30;99.90;;;;;;5099915;28;20316;-89
2023/01/03 14:03:40;;;;;;;8.67;8.47;;;13.10;99.90;;;;;;5098543;28;20229;-88
2023/01/03 14:09:58;;;;;;;9.30;9.00;;;12.70;99.90;;;;;;5097482;28;20221;-88
2023/01/03 14:13:03;;;;;;;9.30;9.00;;;12.40;99.90;;;;;;5098924;28;20240;-88
2023/01/03 14:15:34;;;;;;;9.40;9.10;;;12.20;99.90;;;;;;5098148;28;20320;-88
2023/01/03 14:18:21;;;;;;;9.27;8.97;;;11.90;99.90;;;;;;5098327;28;20228;-88
2023/01/03 14:20:52;;;;;;;9.20;8.90;;;11.60;99.90;;;;;;5097456;28;20213;-88
2023/01/03 14:26:14;;;;;;;9.43;9.13;;;11.20;99.90;;;;;;5098767;28;20313;-89
2023/01/03 14:31:31;;;;;;;9.50;9.20;;;11.10;99.90;;;;;;5098206;28;20228;-88
2023/01/03 14:36:47;;;;;;;9.67;9.37;;;11.60;99.90;;;;;;5098445;28;20229;-88
2023/01/03 14:39:31;;;;;;;9.80;9.50;;;12.00;99.90;;;;;;5098193;28;20283;-89
2023/01/03 14:42:04;;;;;;;9.47;9.17;;;12.30;99.90;;;;;;5097678;28;20229;-88
2023/01/03 14:44:33;;;;;;;9.57;9.27;;;12.70;99.90;;;;;;5098009;28;20257;-88
2023/01/03 14:47:04;;;;;;;9.47;9.17;;;13.10;99.90;;;;;;5098292;28;20229;-88
2023/01/03 14:49:58;;;;;;;9.37;9.07;;;13.30;99.90;;;;;;5101751;28;20245;-87
2023/01/03 14:55:18;;;;;;;8.80;8.60;;;13.40;99.90;;;;;;5097899;28;20268;-88
2023/01/03 15:00:32;;;;;;;8.40;8.20;;;13.30;99.90;;;;;;5121611;28;20220;-87
2023/01/03 15:03:01;;;;;;;8.77;8.57;;;13.20;99.90;;;;;;5119329;28;20312;-88
2023/01/03 15:05:40;;;;;;;8.70;8.50;;;13.00;99.90;;;;;;5101572;28;20329;-88
2023/01/03 15:08:11;;;;;;;8.60;8.40;;;12.90;99.90;;;;;;5102241;28;20229;-88
2023/01/03 15:10:47;;;;;;;8.90;8.70;;;12.80;99.90;;;;;;5102282;28;20237;-88
2023/01/03 15:13:25;;;;;;;8.57;8.37;;;12.60;99.90;;;;;;5102921;28;20229;-88
2023/01/03 15:18:50;;;;;;;8.90;8.70;;;12.30;99.90;;;;;;5101499;28;20225;-88
2023/01/03 15:21:30;;;;;;;9.10;8.80;;;12.10;99.90;;;;;;5119210;28;20213;-87
2023/01/03 15:23:58;;;;;;;9.30;9.00;;;12.00;99.90;;;;;;5113840;28;20283;-88
2023/01/03 15:26:38;;;;;;;9.17;8.87;;;11.90;99.90;;;;;;5101862;28;20267;-88
2023/01/03 15:29:14;;;;;;;8.93;8.73;;;11.70;99.90;;;;;;5101783;28;20221;-88
2023/01/03 15:34:41;;;;;;;8.53;8.33;;;11.40;99.90;;;;;;5114069;28;20221;-88
2023/01/03 15:37:20;;;;;;;8.57;8.37;;;11.20;99.90;;;;;;5123059;28;20213;-86
2023/01/03 15:45:32;;;;;;;8.50;8.30;;;10.80;99.90;;;;;;5122775;28;20233;-86
2023/01/03 15:48:02;;;;;;;8.37;8.17;;;10.60;99.90;;;;;;5122752;28;20213;-88
2023/01/03 15:50:40;;;;;;;8.57;8.37;;;10.50;99.90;;;;;;5121097;28;20256;-88
2023/01/03 15:53:28;;;;;;;8.30;8.10;;;10.30;99.90;;;;;;5117569;28;20272;-88
2023/01/03 15:56:05;;;;;;;8.50;8.30;;;10.10;99.90;;;;;;5103946;28;20320;-88
2023/01/03 15:58:37;;;;;;;8.10;7.90;;;9.90;99.90;;;;;;5102494;28;20283;-87
2023/01/03 16:01:06;;;;;;;8.10;7.90;;;9.80;99.90;;;;;;5102307;28;20998;-88
2023/01/03 16:03:35;;;;;;;8.27;8.07;;;9.70;99.90;;;;;;5102520;28;20225;-88
2023/01/03 16:06:04;;;;;;;8.00;7.80;;;9.50;99.90;;;;;;5101360;28;20241;-88
2023/01/03 16:08:43;;;;;;;8.23;8.03;;;9.40;99.90;;;;;;5101505;28;20225;-89
2023/01/03 16:11:19;;;;;;;8.43;8.23;;;9.30;99.90;;;;;;5100856;28;20275;-88
2023/01/03 16:13:57;;;;;;;8.20;8.00;;;9.20;99.90;;;;;;5100926;28;20272;-88